Prudhoe Bay, AK

3:22 AM AKST on February 22, 2017 (GMT -0900)
Milne Point | | Change Station

Elev 100 ft 70.46 °N, 149.44 °W | Updated 3 minutes ago

Clear
Clear
-27.5 °F
Feels Like -47 °F
N
7.5
Wind Variable Wind from SW
Gusts 12.9 mph

Today
High -- | Low -- °F
--% Chance of Precip.
Yesterday
High -- | Low -- °F
Precip. -- in
Pressure 30.23 in
Visibility 10.0 miles
Clouds Clear
Windchill -47 °F
Dew Point -34 °F
Humidity 70%
Rainfall 0.00 in
Snow Depth Not available.
8:57 AM 5:27 PM
Waning Crescent, 17% visible
METAR PASC 221153Z 22013KT 10SM CLR M31/M39 A3022 RMK AO2 SLP235 T13061394 11167 21311 58001
Pressure 30.23 in
Visibility 10.0 miles
Clouds Clear
Windchill -47 °F
Dew Point -34 °F
Humidity 70%
Rainfall 0.00 in
Snow Depth Not available.
8:57 AM 5:27 PM
Waning Crescent, 17% visible
METAR PASC 221153Z 22013KT 10SM CLR M31/M39 A3022 RMK AO2 SLP235 T13061394 11167 21311 58001

Get Your Daily Forecast Email!

Thanks for signing up!

Be on the lookout for a verification email in your inbox.

You'll start receiving the daily forecast at 8 AM.

×

10-Day Weather Forecast

Almanac

Astronomy

Feb. 22, 2017 Rise Set
Actual Time
Civil Twilight
Nautical Twilight
Astronomical Twilight
Moon
Length of Visible Light
Length of Day
Tomorrow will be .
, % of the Moon is Illuminated

Today's Extremes

State Highs State Lows

Community

WunderPhotos

Upload Photos

1,962,540 photos uploaded!

WunderBlog® & News

Nearby

Air Quality

  Air Quality AQ Index Pollutant
Not available.

Snow Depth

Station Depth Elevation

Earthquake Activity

City Distance Mag. Time & Date
Minimum magnitude displayed is 2.5.

Coastal Water Temperatures

Place Temperature

Stations

Nearby Weather Stations

Station Location Temp. Windchill Dew Point Humidity Wind Precip. Elev Updated Type
                   

Watches & Warnings

There are currently no watches in effect.